Terminal Aerodrome Forecast
Issued by NWS Wakefield, VA

Home | Current Version | Previous Version | Text Only | Print | Product List | Glossary On
Versions: 1 2 3 4 5 6 7 8 9 10 11 12 13 14 15
960
FTUS41 KAKQ 192330
TAFRIC
TAF
KRIC 192330Z 2000/2024 33015G23KT P6SM SKC
     FM200300 34007KT P6SM SKC
     FM201200 33012G19KT P6SM SKC
     FM201500 32010G17KT P6SM SKC=

USA.gov is the U.S. government's official web portal to all federal, state and local government web resources and services.